createdAt,value
2018-12-14T00:00:05.580Z,93.50
2018-12-14T00:02:43.923Z,93.50
2018-12-14T00:05:25.274Z,93.50
2018-12-14T00:15:37.731Z,93.70
2018-12-14T00:18:14.589Z,93.70
2018-12-14T00:20:53.256Z,93.70
2018-12-14T00:23:32.055Z,93.70
2018-12-14T00:26:10.269Z,93.70
2018-12-14T00:28:48.348Z,93.70
2018-12-14T00:31:23.415Z,93.80
2018-12-14T00:34:07.853Z,93.80
2018-12-14T00:36:42.828Z,93.80
2018-12-14T00:39:27.820Z,93.80
2018-12-14T00:42:12.888Z,93.80
2018-12-14T00:44:57.602Z,93.80
2018-12-14T00:50:35.450Z,93.80
2018-12-14T00:53:13.492Z,93.90
2018-12-14T00:55:51.676Z,93.90
2018-12-14T00:58:33.983Z,94.00
2018-12-14T01:01:16.878Z,93.90
2018-12-14T01:03:53.748Z,94.00
2018-12-14T01:06:32.161Z,94.00
2018-12-14T01:09:09.175Z,93.90
2018-12-14T01:11:58.157Z,93.90
2018-12-14T01:14:33.381Z,94.00
2018-12-14T01:20:13.290Z,94.00
2018-12-14T01:22:55.335Z,94.00
2018-12-14T01:28:20.730Z,94.10
2018-12-14T01:31:04.982Z,94.10
2018-12-14T01:33:47.150Z,94.10
2018-12-14T01:36:23.806Z,94.10
2018-12-14T01:41:55.548Z,94.10
2018-12-14T01:47:46.232Z,94.20
2018-12-14T01:50:24.877Z,94.20
2018-12-14T01:53:02.747Z,94.20
2018-12-14T01:55:39.037Z,94.20
2018-12-14T01:58:24.276Z,94.20
2018-12-14T02:01:03.115Z,94.20
2018-12-14T02:03:47.521Z,94.20
2018-12-14T02:06:26.226Z,94.20
2018-12-14T02:09:03.649Z,94.20
2018-12-14T02:11:40.132Z,94.10
2018-12-14T02:14:16.466Z,94.00
2018-12-14T02:17:01.631Z,94.00
2018-12-14T02:19:40.435Z,94.00
2018-12-14T02:22:18.757Z,94.00
2018-12-14T02:24:57.178Z,93.80
2018-12-14T02:30:28.975Z,93.60
2018-12-14T02:35:41.588Z,93.80
2018-12-14T02:38:26.691Z,93.80
2018-12-14T02:41:11.788Z,93.90
2018-12-14T02:43:56.504Z,93.80
2018-12-14T02:46:33.338Z,93.70
2018-12-14T02:49:11.993Z,93.60
2018-12-14T02:51:52.591Z,93.70
2018-12-14T02:57:38.382Z,93.70
2018-12-14T03:00:22.835Z,93.60
2018-12-14T03:02:59.790Z,93.60
2018-12-14T03:05:36.609Z,93.50
2018-12-14T03:08:21.094Z,93.60
2018-12-14T03:11:06.202Z,93.50
2018-12-14T03:13:45.047Z,93.60
2018-12-14T03:16:21.887Z,93.60
2018-12-14T03:22:08.504Z,93.60
2018-12-14T03:24:45.396Z,93.50
2018-12-14T03:27:22.378Z,93.50
2018-12-14T03:30:03.265Z,93.50
2018-12-14T03:32:40.169Z,93.50
2018-12-14T03:35:17.175Z,93.60
2018-12-14T03:37:55.300Z,93.60
2018-12-14T03:43:36.303Z,93.50
2018-12-14T03:46:25.432Z,93.40
2018-12-14T03:49:10.260Z,93.40
2018-12-14T03:51:49.026Z,93.40
2018-12-14T03:54:35.364Z,93.30
2018-12-14T03:57:12.093Z,92.90
2018-12-14T03:59:50.978Z,92.90
2018-12-14T04:02:34.728Z,92.90
2018-12-14T04:05:19.599Z,93.00
2018-12-14T04:07:58.076Z,92.90
2018-12-14T04:10:38.285Z,92.80
2018-12-14T04:13:15.120Z,92.70
2018-12-14T04:15:50.045Z,92.80
2018-12-14T04:18:25.316Z,93.00
2018-12-14T04:21:02.067Z,93.10
2018-12-14T04:23:40.458Z,93.10
2018-12-14T04:26:18.948Z,93.10
2018-12-14T04:31:56.920Z,93.10
2018-12-14T04:34:39.411Z,93.00
2018-12-14T04:37:16.225Z,93.00
2018-12-14T04:40:01.308Z,92.90
2018-12-14T04:42:48.882Z,93.00
2018-12-14T04:48:16.877Z,92.80
2018-12-14T04:50:54.902Z,92.80
2018-12-14T04:53:30.044Z,92.90
2018-12-14T04:56:05.048Z,92.90
2018-12-14T04:58:43.265Z,93.00
2018-12-14T05:01:20.213Z,93.00
2018-12-14T05:03:56.645Z,93.00
2018-12-14T05:06:34.660Z,92.90
2018-12-14T05:09:23.543Z,92.90
2018-12-14T05:12:05.163Z,92.90
2018-12-14T05:14:43.906Z,93.00
2018-12-14T05:17:26.559Z,92.90
2018-12-14T05:20:02.888Z,92.90
2018-12-14T05:22:41.996Z,92.90
2018-12-14T05:28:11.628Z,93.00
2018-12-14T05:30:56.029Z,92.90
2018-12-14T05:33:32.533Z,92.90
2018-12-14T05:36:10.184Z,92.90
2018-12-14T05:47:55.559Z,92.70
2018-12-14T05:53:47.162Z,92.90
2018-12-14T05:56:23.756Z,92.90
2018-12-14T06:02:07.373Z,92.90
2018-12-14T06:10:48.418Z,92.60
2018-12-14T06:13:30.576Z,92.70
2018-12-14T06:16:11.853Z,92.60
2018-12-14T06:18:59.147Z,92.60
2018-12-14T07:43:56.103Z,92.80
2018-12-14T07:55:40.676Z,92.90
2018-12-14T07:58:17.595Z,92.80
2018-12-14T08:00:54.513Z,92.80
2018-12-14T08:03:32.624Z,92.80
2018-12-14T08:06:13.742Z,92.80
2018-12-14T08:08:50.467Z,93.00
2018-12-14T08:11:31.594Z,92.90
2018-12-14T08:17:10.927Z,92.90
2018-12-14T08:25:57.773Z,92.90
2018-12-14T08:28:34.604Z,93.00
2018-12-14T08:31:11.430Z,93.00
2018-12-14T08:45:51.679Z,92.90
2018-12-14T08:48:26.459Z,92.90
2018-12-14T08:51:03.196Z,92.90
2018-12-14T08:56:30.351Z,92.80
2018-12-14T09:02:23.941Z,93.00
2018-12-14T09:20:29.032Z,92.60
2018-12-14T09:23:11.613Z,92.60
2018-12-14T09:28:47.445Z,92.80
2018-12-14T09:34:19.988Z,92.80
2018-12-14T09:36:57.951Z,92.80
2018-12-14T09:39:34.120Z,92.70
2018-12-14T09:42:10.158Z,92.80
2018-12-14T09:47:41.027Z,92.70
2018-12-14T09:50:18.816Z,92.70
2018-12-14T09:52:59.447Z,92.80
2018-12-14T09:55:38.114Z,92.80
2018-12-14T10:08:57.379Z,92.90
2018-12-14T10:14:30.446Z,92.90
2018-12-14T10:17:06.751Z,92.80
2018-12-14T10:19:47.100Z,92.80
2018-12-14T10:22:30.569Z,92.70
2018-12-14T10:25:11.067Z,92.70
2018-12-14T10:27:47.374Z,92.70
2018-12-14T10:30:27.838Z,92.60
2018-12-14T10:33:04.578Z,92.60
2018-12-14T10:35:42.671Z,92.70
2018-12-14T10:38:19.295Z,92.80
2018-12-14T10:40:55.827Z,92.70
2018-12-14T10:43:32.002Z,92.80
2018-12-14T10:46:09.829Z,92.70
2018-12-14T10:48:45.791Z,92.70
2018-12-14T10:51:21.893Z,92.70
2018-12-14T10:53:59.879Z,92.70
2018-12-14T10:56:35.811Z,92.60
2018-12-14T10:59:12.831Z,92.50
2018-12-14T11:01:53.211Z,92.50
2018-12-14T11:04:31.921Z,92.30
2018-12-14T11:07:09.999Z,92.10
2018-12-14T11:09:48.304Z,92.20
2018-12-14T11:12:24.286Z,92.20
2018-12-14T11:15:00.380Z,92.10
2018-12-14T11:17:40.838Z,92.20
2018-12-14T11:20:21.155Z,92.20
2018-12-14T11:23:01.561Z,92.20
2018-12-14T11:25:42.280Z,92.00
2018-12-14T11:28:18.744Z,92.00
2018-12-14T11:30:56.982Z,92.00
2018-12-14T11:33:37.218Z,92.10
2018-12-14T11:36:10.628Z,92.10
2018-12-14T11:38:52.374Z,92.10
2018-12-14T11:41:30.958Z,92.20
2018-12-14T11:44:08.779Z,92.10
2018-12-14T11:46:45.061Z,92.00
2018-12-14T11:49:21.065Z,92.00
2018-12-14T11:51:59.334Z,91.90
2018-12-14T11:54:35.521Z,92.00
2018-12-14T11:57:14.038Z,91.90
2018-12-14T11:59:52.360Z,91.90
2018-12-14T12:08:32.048Z,91.90
2018-12-14T12:14:11.422Z,91.80
2018-12-14T12:16:49.301Z,91.90
2018-12-14T12:19:26.204Z,91.90
2018-12-14T12:24:56.768Z,91.90
2018-12-14T12:27:33.241Z,91.90
2018-12-14T12:30:11.235Z,92.10
2018-12-14T12:32:49.240Z,92.00
2018-12-14T12:35:34.791Z,91.90
2018-12-14T12:38:12.786Z,91.80
2018-12-14T12:40:49.435Z,91.90
2018-12-14T12:46:32.227Z,92.10
2018-12-14T12:49:09.530Z,91.90
2018-12-14T12:51:47.502Z,91.90
2018-12-14T12:54:25.554Z,91.90
2018-12-14T12:57:04.307Z,91.80
2018-12-14T12:59:44.942Z,91.80
2018-12-14T13:02:25.360Z,91.70
2018-12-14T13:08:07.952Z,91.50
2018-12-14T13:10:46.653Z,91.50
2018-12-14T13:13:27.072Z,91.50
2018-12-14T13:16:03.592Z,91.30
2018-12-14T13:18:39.992Z,91.50
2018-12-14T13:21:14.232Z,91.40
2018-12-14T13:23:50.413Z,91.10
2018-12-14T13:26:26.507Z,91.40
2018-12-14T13:29:06.946Z,91.40
2018-12-14T13:31:45.853Z,91.40
2018-12-14T13:37:16.785Z,91.50
2018-12-14T13:39:51.898Z,91.20
2018-12-14T13:42:28.854Z,91.30
2018-12-14T13:45:15.377Z,91.40
2018-12-14T13:53:58.016Z,91.50
2018-12-14T13:56:38.769Z,91.30
2018-12-14T14:02:06.183Z,91.40
2018-12-14T14:07:33.750Z,91.30
2018-12-14T14:13:03.822Z,91.30
2018-12-14T14:15:39.758Z,91.00
2018-12-14T14:18:16.115Z,90.80
2018-12-14T14:20:59.968Z,90.90
2018-12-14T14:23:36.067Z,90.80
2018-12-14T14:26:13.864Z,91.00
2018-12-14T14:28:50.119Z,90.60
2018-12-14T14:31:42.151Z,91.00
2018-12-14T14:34:18.159Z,90.80
2018-12-14T14:36:58.871Z,90.80
2018-12-14T14:39:33.483Z,90.70
2018-12-14T14:42:09.755Z,90.80
2018-12-14T14:44:44.792Z,90.90
2018-12-14T14:47:21.473Z,90.90
2018-12-14T14:49:59.537Z,91.00
2018-12-14T14:52:35.854Z,90.70
2018-12-14T14:55:09.880Z,90.80
2018-12-14T14:57:47.964Z,90.70
2018-12-14T15:00:28.359Z,90.10
2018-12-14T15:03:00.499Z,90.60
2018-12-14T15:05:36.960Z,90.40
2018-12-14T15:08:15.076Z,90.40
2018-12-14T15:10:54.276Z,90.70
2018-12-14T15:13:32.132Z,90.70
2018-12-14T15:16:08.206Z,90.60
2018-12-14T15:18:46.230Z,90.50
2018-12-14T15:21:30.677Z,90.20
2018-12-14T15:24:06.036Z,90.50
2018-12-14T15:26:44.611Z,90.60
2018-12-14T15:29:20.834Z,90.70
2018-12-14T15:31:59.170Z,90.80
2018-12-14T15:34:37.069Z,90.80
2018-12-14T15:37:13.163Z,90.60
2018-12-14T15:39:51.351Z,90.60
2018-12-14T15:42:28.299Z,90.60
2018-12-14T15:45:05.209Z,90.50
2018-12-14T15:47:40.257Z,90.60
2018-12-14T15:50:17.334Z,90.60
2018-12-14T15:52:58.470Z,90.70
2018-12-14T15:55:34.996Z,90.60
2018-12-14T15:58:10.591Z,90.80
2018-12-14T16:00:49.221Z,90.60
2018-12-14T16:03:27.382Z,90.60
2018-12-14T16:06:04.356Z,90.60
2018-12-14T16:08:40.624Z,90.60
2018-12-14T16:11:18.641Z,90.40
2018-12-14T16:13:56.577Z,90.40
2018-12-14T16:16:34.676Z,90.50
2018-12-14T16:19:15.404Z,90.50
2018-12-14T16:21:51.885Z,90.50
2018-12-14T16:24:32.354Z,90.50
2018-12-14T16:27:09.764Z,90.50
2018-12-14T16:29:45.854Z,90.50
2018-12-14T16:32:24.108Z,90.40
2018-12-14T16:35:02.452Z,90.40
2018-12-14T16:37:38.831Z,90.30
2018-12-14T16:40:13.249Z,90.40
2018-12-14T16:42:50.079Z,90.40
2018-12-14T16:45:26.707Z,90.40
2018-12-14T16:48:05.229Z,90.40
2018-12-14T16:50:41.615Z,90.50
2018-12-14T16:53:21.916Z,90.50
2018-12-14T16:55:52.125Z,90.50
2018-12-14T16:58:32.627Z,90.40
2018-12-14T17:01:14.442Z,90.30
2018-12-14T17:03:55.514Z,90.40
2018-12-14T17:09:37.146Z,90.30
2018-12-14T17:12:17.457Z,90.10
2018-12-14T17:14:56.036Z,90.30
2018-12-14T17:17:34.153Z,90.20
2018-12-14T17:20:10.332Z,90.20
2018-12-14T17:22:46.940Z,90.10
2018-12-14T17:25:27.608Z,90.20
2018-12-14T17:28:15.567Z,90.50
2018-12-14T17:30:54.036Z,90.20
2018-12-14T17:33:36.144Z,90.30
2018-12-14T17:36:12.740Z,90.30
2018-12-14T17:38:50.971Z,90.20
2018-12-14T17:41:26.950Z,90.00
2018-12-14T17:44:05.197Z,90.10
2018-12-14T17:46:43.619Z,90.20
2018-12-14T17:49:21.589Z,90.10
2018-12-14T17:51:59.747Z,90.20
2018-12-14T17:54:35.657Z,90.30
2018-12-14T17:57:12.267Z,90.20
2018-12-14T17:59:48.773Z,90.30
2018-12-14T18:02:29.344Z,90.10
2018-12-14T18:05:07.868Z,90.30
2018-12-14T18:07:44.723Z,90.30
2018-12-14T18:10:26.506Z,90.40
2018-12-14T18:13:03.228Z,90.30
2018-12-14T18:15:39.109Z,90.30
2018-12-14T18:18:19.075Z,90.30
2018-12-14T18:20:57.651Z,90.30
2018-12-14T18:23:38.067Z,90.30
2018-12-14T18:26:16.494Z,90.40
2018-12-14T18:29:06.630Z,90.40
2018-12-14T18:31:45.502Z,90.30
2018-12-14T18:34:24.289Z,90.30
2018-12-14T18:37:03.136Z,90.30
2018-12-14T18:39:44.251Z,90.30
2018-12-14T18:51:36.606Z,90.30
2018-12-14T18:54:12.881Z,90.30
2018-12-14T18:56:50.887Z,90.30
2018-12-14T19:02:28.672Z,90.20
2018-12-14T19:05:05.037Z,90.30
2018-12-14T19:07:50.188Z,90.40
2018-12-14T19:10:31.110Z,90.40
2018-12-14T19:16:09.609Z,90.40
2018-12-14T19:24:59.351Z,90.40
2018-12-14T19:36:42.218Z,90.30
2018-12-14T19:39:22.678Z,90.40
2018-12-14T19:41:59.004Z,90.50
2018-12-14T19:44:43.385Z,90.30
2018-12-14T19:47:24.983Z,90.40
2018-12-14T19:50:01.516Z,90.40
2018-12-14T19:52:37.732Z,90.30
2018-12-14T19:55:14.888Z,90.30
2018-12-14T19:57:51.432Z,90.40
2018-12-14T20:00:29.501Z,90.30
2018-12-14T20:03:10.800Z,90.10
2018-12-14T20:05:47.035Z,90.10
2018-12-14T20:08:27.463Z,90.20
2018-12-14T20:11:04.481Z,90.20
2018-12-14T20:13:49.578Z,90.10
2018-12-14T20:22:30.921Z,90.20
2018-12-14T20:25:09.562Z,90.10
2018-12-14T20:27:47.843Z,90.30
2018-12-14T20:30:34.892Z,90.10
2018-12-14T20:33:21.475Z,90.20
2018-12-14T20:41:53.373Z,90.30
2018-12-14T20:47:36.332Z,90.30
2018-12-14T20:50:14.873Z,90.40
2018-12-14T20:52:52.694Z,90.40
2018-12-14T20:55:37.151Z,90.20
2018-12-14T20:58:13.328Z,90.20
2018-12-14T21:00:49.655Z,90.30
2018-12-14T21:03:25.774Z,90.30
2018-12-14T21:06:01.877Z,90.30
2018-12-14T21:08:49.080Z,90.20
2018-12-14T21:14:20.238Z,90.20
2018-12-14T21:17:07.488Z,90.20
2018-12-14T21:22:47.648Z,90.30
2018-12-14T21:25:24.324Z,90.40
2018-12-14T21:28:01.087Z,90.30
2018-12-14T21:30:46.158Z,90.30
2018-12-14T21:33:26.400Z,90.40
2018-12-14T21:36:02.873Z,90.30
2018-12-14T21:38:38.847Z,90.20
2018-12-14T21:41:15.124Z,90.10
2018-12-14T21:43:51.831Z,90.30
2018-12-14T21:46:32.387Z,90.30
2018-12-14T21:49:07.255Z,90.30
2018-12-14T21:51:48.017Z,90.20
2018-12-14T21:54:24.603Z,90.30
2018-12-14T21:57:02.668Z,90.20
2018-12-14T21:59:40.686Z,90.20
2018-12-14T22:02:18.554Z,90.10
2018-12-14T22:04:57.044Z,90.20
2018-12-14T22:07:33.960Z,90.20
2018-12-14T22:10:11.879Z,90.20
2018-12-14T22:12:52.224Z,90.20
2018-12-14T22:15:33.464Z,90.20
2018-12-14T22:18:04.156Z,90.10
2018-12-14T22:20:45.719Z,90.20
2018-12-14T22:23:26.770Z,90.10
2018-12-14T22:26:07.592Z,90.20
2018-12-14T22:28:54.657Z,90.20
2018-12-14T22:31:32.858Z,90.10
2018-12-14T22:34:09.510Z,90.00
2018-12-14T22:36:46.236Z,90.00
2018-12-14T22:39:24.846Z,90.10
2018-12-14T22:42:01.388Z,90.20
2018-12-14T22:44:39.403Z,90.20
2018-12-14T22:47:19.754Z,90.20
2018-12-14T22:50:06.832Z,90.20
2018-12-14T22:52:45.367Z,90.00
2018-12-14T22:55:29.579Z,90.10
2018-12-14T22:58:06.147Z,90.10
2018-12-14T23:00:49.519Z,90.10
2018-12-14T23:03:26.221Z,90.10
2018-12-14T23:06:04.399Z,90.10
2018-12-14T23:08:41.263Z,90.10
2018-12-14T23:11:17.625Z,90.00
2018-12-14T23:13:55.756Z,90.00
2018-12-14T23:16:36.911Z,90.00
2018-12-14T23:19:21.867Z,90.00
2018-12-14T23:22:00.598Z,90.20
2018-12-14T23:24:38.399Z,89.90
2018-12-14T23:27:18.890Z,90.00
2018-12-14T23:29:55.681Z,90.00
2018-12-14T23:32:36.012Z,90.00
2018-12-14T23:35:12.676Z,89.90
2018-12-14T23:37:48.921Z,89.90
2018-12-14T23:40:25.338Z,89.90
2018-12-14T23:43:02.214Z,89.70
2018-12-14T23:45:39.086Z,89.80
2018-12-14T23:48:17.096Z,89.80
2018-12-14T23:50:52.421Z,89.50
2018-12-14T23:53:29.226Z,89.70
2018-12-14T23:58:56.874Z,89.90
